Погода Пуэрто-Ла-Крусна 2 недели

Анзоатеги, Венесуэла

05 - 17 марта
  • 05марта
    Сегодня
    +22°
    +32°
    Ясно и безоблачно
    ВремяПогодаТемператураВлажностьДавлениеВетер, м/сВероятность осадков
    02:00Ясно и безоблачно+26°C89 %753 мм1.5 м/с2 %
    05:00Небольшая облачность+24°C91 %753 мм1.4 м/с2 %
    08:00Ясно и безоблачно+24°C77 %754 мм1.9 м/с2 %
    11:00Ясно и безоблачно+29°C63 %755 мм2.8 м/с2 %
    14:00Ясно и безоблачно+32°C62 %753 мм3.5 м/с17 %
    17:00Ясно и безоблачно+31°C67 %751 мм4.7 м/с17 %
    20:00Ясно и безоблачно+26°C83 %751 мм3.9 м/с2 %
    23:00Ясно и безоблачно+28°C85 %752 мм2.3 м/с2 %
  • 06марта
    Среда
    +23°
    +33°
    Практически безоблачно
    ВремяПогодаТемператураВлажностьДавлениеВетер, м/сВероятность осадков
    02:00Ясно и безоблачно+26°C86 %752 мм1.0 м/с2 %
    05:00Ясно и безоблачно+25°C89 %752 мм1.1 м/с2 %
    08:00Ясно и безоблачно+24°C78 %754 мм1.9 м/с2 %
    11:00Ясно и безоблачно+30°C62 %754 мм2.9 м/с2 %
    14:00Практически безоблачно+33°C63 %752 мм3.7 м/с16 %
    17:00Ясно и безоблачно+31°C65 %751 мм4.6 м/с13 %
    20:00Ясно и безоблачно+27°C78 %752 мм3.7 м/с2 %
    23:00Ясно и безоблачно+28°C78 %753 мм1.8 м/с2 %
  • 07марта
    Четверг
    +24°
    +34°
    Практически безоблачно
    ВремяПогодаТемператураВлажностьДавлениеВетер, м/сВероятность осадков
    02:00Ясно и безоблачно+26°C83 %753 мм1.3 м/с2 %
    05:00Ясно и безоблачно+25°C85 %752 мм1.6 м/с2 %
    08:00Ясно и безоблачно+25°C81 %754 мм1.9 м/с2 %
    11:00Ясно и безоблачно+31°C66 %755 мм3.0 м/с2 %
    14:00Практически безоблачно+33°C64 %753 мм3.7 м/с24 %
    17:00Практически безоблачно+31°C69 %751 мм4.4 м/с14 %
    20:00Практически безоблачно+28°C80 %752 мм2.9 м/с6 %
    23:00Облачно с прояснениями+28°C82 %754 мм1.5 м/с2 %
  • 08марта
    Пятница
    +23°
    +34°
    Небольшая облачность и лёгкий дождик
    ВремяПогодаТемператураВлажностьДавлениеВетер, м/сВероятность осадков
    02:00Облачно с прояснениями+27°C86 %753 мм1.5 м/с2 %
    05:00Небольшая облачность+25°C91 %753 мм1.9 м/с2 %
    08:00Небольшая облачность+25°C82 %755 мм1.8 м/с2 %
    11:00Облачно с прояснениями+30°C69 %755 мм3.3 м/с16 %
    14:00Небольшая облачность и лёгкий дождик+33°C58 %753 мм4.0 м/с36 %
    17:00Небольшая облачность+31°C65 %751 мм4.8 м/с14 %
    20:00Ясно и безоблачно+27°C80 %752 мм3.8 м/с2 %
    23:00Ясно и безоблачно+28°C80 %753 мм2.0 м/с2 %
Мы используем cookies
Соглашаюсь